Time;durP1;ratioP1;P1;durP2;ratioP2;P2;SDS_P1;SDS_P2;PMS_P1;PMS_P2;Temp;Humidity;BMP_temperature;BMP_pressure;BME280_temperature;BME280_humidity;BME280_pressure;Samples;Min_cycle;Max_cycle;Signal;HPM_P1;HPM_P2
2023/08/16 00:00:14;;;;;;;13.58;7.90;;;;;;;23.51;68.58;100993.12;1751544;82;21039;-60
2023/08/16 00:02:44;;;;;;;12.25;7.85;;;;;;;23.49;68.70;100993.10;1751468;82;20990;-58
2023/08/16 00:05:14;;;;;;;11.05;8.30;;;;;;;23.46;68.93;100991.69;1751327;82;21074;-59
2023/08/16 00:07:43;;;;;;;13.53;8.13;;;;;;;23.46;69.12;100994.48;1751357;81;21105;-58
2023/08/16 00:10:13;;;;;;;13.10;8.18;;;;;;;23.44;69.14;100998.11;1751439;82;21034;-59
2023/08/16 00:12:43;;;;;;;10.58;7.65;;;;;;;23.39;69.29;100996.08;1751409;81;21517;-59
2023/08/16 00:15:12;;;;;;;12.35;8.35;;;;;;;23.38;69.44;100994.39;1751364;81;21474;-60
2023/08/16 00:17:42;;;;;;;13.08;7.60;;;;;;;23.39;69.58;100993.28;1751658;82;21019;-59
2023/08/16 00:20:12;;;;;;;11.57;8.28;;;;;;;23.41;69.59;100997.24;1751317;81;21084;-59
2023/08/16 00:22:40;;;;;;;11.05;8.40;;;;;;;23.42;69.49;100996.13;1751492;82;20991;-60
2023/08/16 00:25:10;;;;;;;12.60;8.28;;;;;;;23.42;69.45;100998.08;1751564;82;21062;-58
2023/08/16 00:27:39;;;;;;;13.40;8.35;;;;;;;23.38;69.44;100999.14;1751333;81;21086;-58
2023/08/16 00:30:11;;;;;;;11.05;8.13;;;;;;;23.32;69.63;100998.81;1751362;82;21475;-59
2023/08/16 00:32:42;;;;;;;12.88;7.70;;;;;;;23.30;69.82;101008.88;1716951;82;21038;-59
2023/08/16 00:35:10;;;;;;;13.35;7.80;;;;;;;23.30;69.87;101008.03;1715344;84;21089;-59
2023/08/16 00:37:39;;;;;;;14.65;8.05;;;;;;;23.29;69.90;101009.98;1715531;83;21483;-59
2023/08/16 00:40:09;;;;;;;12.73;8.10;;;;;;;23.29;69.83;101009.98;1715268;84;21018;-59
2023/08/16 00:42:38;;;;;;;15.28;8.73;;;;;;;23.28;69.80;101010.25;1715473;83;21042;-59
2023/08/16 00:45:07;;;;;;;11.50;8.30;;;;;;;23.27;69.82;101011.36;1715566;84;20990;-60
2023/08/16 00:47:36;;;;;;;11.57;8.45;;;;;;;23.26;69.85;101011.92;1715568;84;21062;-60
2023/08/16 00:50:06;;;;;;;10.50;8.05;;;;;;;23.23;70.05;101007.42;1715308;83;21512;-60
2023/08/16 00:52:37;;;;;;;11.53;7.95;;;;;;;23.21;70.22;101012.43;1708777;82;21035;-59
2023/08/16 00:55:06;;;;;;;12.60;8.53;;;;;;;23.17;70.33;101014.92;1715530;82;21415;-59
2023/08/16 00:57:35;;;;;;;11.33;8.05;;;;;;;23.16;70.45;101017.42;1715379;84;21469;-59
2023/08/16 01:00:06;;;;;;;13.65;8.43;;;;;;;23.14;70.52;101010.41;1715457;82;21094;-59
2023/08/16 01:02:35;;;;;;;14.43;8.55;;;;;;;23.13;70.62;101015.72;1715391;84;21027;-59
2023/08/16 01:05:06;;;;;;;12.55;8.28;;;;;;;23.12;70.66;101015.42;1715334;83;21564;-60
2023/08/16 01:07:35;;;;;;;12.53;8.85;;;;;;;23.07;70.73;101014.27;1715430;83;21094;-59
2023/08/16 01:10:05;;;;;;;12.93;8.40;;;;;;;23.02;70.89;101014.23;1715569;84;21070;-59
2023/08/16 01:12:53;;;;;;;11.20;7.92;;;;;;;23.01;71.11;101013.09;1715517;82;21054;-59
2023/08/16 01:15:32;;;;;;;10.95;8.68;;;;;;;23.00;71.31;101014.20;1715492;84;21474;-60
2023/08/16 01:18:00;;;;;;;11.35;7.85;;;;;;;22.98;71.46;101017.81;1714854;84;21503;-59
2023/08/16 01:20:29;;;;;;;11.30;8.00;;;;;;;22.97;71.57;101015.58;1715615;83;21019;-60
2023/08/16 01:23:06;;;;;;;11.30;8.53;;;;;;;22.98;71.54;101013.63;1715396;84;21077;-60
2023/08/16 01:25:45;;;;;;;10.10;7.87;;;;;;;22.97;71.53;101020.33;1715454;84;21054;-59
2023/08/16 01:28:14;;;;;;;13.55;8.25;;;;;;;22.93;71.66;101017.77;1715523;84;21106;-60
2023/08/16 01:30:45;;;;;;;13.48;8.63;;;;;;;22.90;71.76;101017.75;1716202;81;21058;-60
2023/08/16 01:33:14;;;;;;;11.50;7.70;;;;;;;22.87;71.89;101016.03;1761508;81;21101;-59
2023/08/16 01:35:44;;;;;;;12.28;8.30;;;;;;;22.84;72.02;101020.20;1761461;81;21085;-60
2023/08/16 01:38:15;;;;;;;14.63;8.98;;;;;;;22.81;72.17;101017.94;1761587;81;21050;-60
2023/08/16 01:40:49;;;;;;;12.78;8.18;;;;;;;22.78;72.30;101021.22;1761677;81;21037;-60
2023/08/16 01:43:18;;;;;;;11.03;7.95;;;;;;;22.78;72.50;101026.26;1761621;81;21113;-60
2023/08/16 01:45:48;;;;;;;11.38;8.33;;;;;;;22.75;72.62;101010.54;1761716;81;21089;-59
2023/08/16 01:48:18;;;;;;;11.43;8.13;;;;;;;22.75;72.77;101020.32;1761619;81;21098;-59
2023/08/16 01:50:47;;;;;;;14.65;8.60;;;;;;;22.74;72.93;101018.08;1761780;81;21027;-59
2023/08/16 01:53:18;;;;;;;13.75;8.60;;;;;;;22.76;72.97;101013.11;1761663;81;21065;-59
2023/08/16 01:55:47;;;;;;;12.75;8.33;;;;;;;22.72;72.86;101015.26;1761723;81;21015;-60
2023/08/16 01:58:16;;;;;;;11.28;8.10;;;;;;;22.70;72.91;101010.48;1761714;81;21040;-60
2023/08/16 02:00:44;;;;;;;11.80;8.38;;;;;;;22.69;72.92;100998.47;1761468;81;21442;-60
2023/08/16 02:03:14;;;;;;;12.50;7.65;;;;;;;22.68;72.89;101002.37;1761494;81;21027;-59
2023/08/16 02:05:42;;;;;;;12.05;8.15;;;;;;;22.62;73.11;101007.61;1761500;81;21030;-59
2023/08/16 02:08:13;;;;;;;12.20;8.13;;;;;;;22.60;73.34;101011.77;1761673;81;21046;-59
2023/08/16 02:10:42;;;;;;;11.33;8.00;;;;;;;22.59;73.54;101010.94;1761593;81;21006;-59
2023/08/16 02:13:11;;;;;;;14.33;9.00;;;;;;;22.61;73.58;101009.27;1761527;81;21010;-59
2023/08/16 02:15:41;;;;;;;15.35;8.58;;;;;;;22.59;73.55;101007.30;1761503;81;21454;-59
2023/08/16 02:18:10;;;;;;;11.80;8.18;;;;;;;22.57;73.57;101017.89;1761656;81;21415;-59
2023/08/16 02:20:40;;;;;;;12.55;8.35;;;;;;;22.56;73.63;101013.41;1761512;81;21454;-60
2023/08/16 02:23:09;;;;;;;11.25;8.20;;;;;;;22.59;73.60;101017.07;1761660;81;21117;-59
2023/08/16 02:25:39;;;;;;;13.90;8.83;;;;;;;22.59;73.52;101012.33;1761645;81;21034;-59
2023/08/16 02:28:08;;;;;;;12.05;8.05;;;;;;;22.58;73.55;101013.44;1761408;81;21062;-59
2023/08/16 02:30:37;;;;;;;10.88;8.35;;;;;;;22.58;73.58;101016.78;1761665;81;21050;-58
2023/08/16 02:33:06;;;;;;;10.08;8.10;;;;;;;22.55;73.66;101021.49;1745318;81;21110;-61
2023/08/16 02:35:36;;;;;;;12.20;8.73;;;;;;;22.53;73.75;101020.91;1742766;82;21062;-60
2023/08/16 02:38:05;;;;;;;11.38;8.40;;;;;;;22.52;73.97;101024.81;1742703;82;21039;-59
2023/08/16 02:40:35;;;;;;;12.50;8.25;;;;;;;22.52;74.08;101023.42;1742772;82;21067;-59
2023/08/16 02:43:05;;;;;;;12.80;8.33;;;;;;;22.51;74.17;101028.16;1742971;82;21118;-59
2023/08/16 02:45:35;;;;;;;12.00;8.43;;;;;;;22.50;74.26;101022.83;1742986;82;21086;-60
2023/08/16 02:48:05;;;;;;;11.10;8.20;;;;;;;22.51;74.25;101034.30;1742791;82;21102;-60
2023/08/16 02:50:34;;;;;;;10.55;8.43;;;;;;;22.46;74.31;101030.89;1742789;82;21039;-60
2023/08/16 02:53:04;;;;;;;12.15;8.43;;;;;;;22.41;74.43;101032.23;1742901;82;21007;-60
2023/08/16 02:55:34;;;;;;;13.43;8.58;;;;;;;22.38;74.64;101034.14;1742852;82;21031;-60
2023/08/16 02:58:04;;;;;;;12.33;8.28;;;;;;;22.36;74.83;101037.20;1742845;82;21506;-59
2023/08/16 03:00:32;;;;;;;11.50;8.58;;;;;;;22.35;74.91;101041.09;1742725;82;21475;-60
2023/08/16 03:03:01;;;;;;;11.43;7.95;;;;;;;22.35;74.95;101041.65;1742762;82;21459;-59
2023/08/16 03:05:30;;;;;;;11.57;7.90;;;;;;;22.30;75.04;101046.62;1743056;82;21031;-59
2023/08/16 03:07:58;;;;;;;10.82;8.48;;;;;;;22.28;75.24;101046.59;1742966;82;21047;-62
2023/08/16 03:10:27;;;;;;;13.98;8.75;;;;;;;22.27;75.35;101050.48;1742923;82;21007;-60
2023/08/16 03:12:59;;;;;;;14.63;8.33;;;;;;;22.25;75.50;101053.53;1743027;82;21090;-60
2023/08/16 03:15:27;;;;;;;11.28;8.43;;;;;;;22.25;75.64;101056.88;1742948;82;21087;-59
2023/08/16 03:17:56;;;;;;;13.60;8.25;;;;;;;22.24;75.77;101053.79;1743227;82;21149;-58
2023/08/16 03:20:25;;;;;;;12.47;8.83;;;;;;;22.24;75.90;101049.05;1743001;82;21004;-59
2023/08/16 03:22:54;;;;;;;11.53;9.10;;;;;;;22.25;76.00;101052.14;1743085;82;21098;-59
2023/08/16 03:25:24;;;;;;;12.13;8.65;;;;;;;22.24;76.09;101047.66;1743144;82;21512;-59
2023/08/16 03:27:54;;;;;;;13.53;9.13;;;;;;;22.27;76.16;101050.48;1744767;82;21031;-59
2023/08/16 03:30:23;;;;;;;19.70;9.40;;;;;;;22.26;76.15;101048.23;1743170;82;21058;-60
2023/08/16 03:32:53;;;;;;;12.23;8.20;;;;;;;22.26;76.16;101055.22;1742887;82;21063;-60
2023/08/16 03:35:24;;;;;;;12.18;8.10;;;;;;;22.27;76.19;101051.33;1743025;82;21482;-59
2023/08/16 03:37:55;;;;;;;13.30;8.90;;;;;;;22.29;76.21;101057.49;1743094;82;21270;-58
2023/08/16 03:40:25;;;;;;;16.87;9.73;;;;;;;22.29;76.30;101059.44;1742849;82;21481;-59
2023/08/16 03:42:54;;;;;;;17.48;8.80;;;;;;;22.29;76.43;101058.89;1742905;82;21585;-60
2023/08/16 03:45:25;;;;;;;16.97;9.35;;;;;;;22.30;76.55;101059.18;1743096;82;21055;-60
2023/08/16 03:47:55;;;;;;;10.95;9.08;;;;;;;22.36;76.50;101062.88;1742893;82;21114;-60
2023/08/16 03:50:25;;;;;;;13.03;9.25;;;;;;;22.38;76.49;101061.52;1742883;82;21090;-59
2023/08/16 03:52:54;;;;;;;11.50;9.73;;;;;;;22.37;76.56;101064.02;1742939;82;21063;-60
2023/08/16 03:55:23;;;;;;;13.08;9.15;;;;;;;22.37;76.64;101061.23;1743040;82;21007;-59
2023/08/16 03:57:52;;;;;;;11.93;8.93;;;;;;;22.37;76.78;101064.57;1743068;82;21035;-60
2023/08/16 04:00:22;;;;;;;13.18;9.18;;;;;;;22.38;76.88;101062.07;1742850;82;21098;-59
2023/08/16 04:02:51;;;;;;;12.95;9.78;;;;;;;22.42;77.02;101070.22;1743009;82;21074;-59
2023/08/16 04:05:21;;;;;;;18.75;10.65;;;;;;;22.48;76.99;101063.59;1742894;82;21063;-59
2023/08/16 04:07:52;;;;;;;15.93;10.65;;;;;;;22.55;76.69;101070.38;1742677;82;21561;-60
2023/08/16 04:10:20;;;;;;;17.80;10.70;;;;;;;22.59;76.48;101070.14;1742736;82;21461;-60
2023/08/16 04:12:51;;;;;;;16.23;10.90;;;;;;;22.65;76.33;101073.29;1743032;82;21103;-59
2023/08/16 04:15:25;;;;;;;15.95;10.58;;;;;;;22.72;76.13;101069.74;1742829;82;20995;-59
2023/08/16 04:17:56;;;;;;;18.23;11.03;;;;;;;22.80;75.82;101071.26;1742878;82;21580;-60
2023/08/16 04:20:25;;;;;;;19.27;11.05;;;;;;;22.84;75.46;101074.69;1743062;82;21023;-59
2023/08/16 04:22:55;;;;;;;19.40;11.10;;;;;;;22.88;75.28;101078.66;1743061;82;21115;-60
2023/08/16 04:25:23;;;;;;;29.40;12.60;;;;;;;22.95;74.96;101082.63;1742820;82;21459;-59
2023/08/16 04:27:52;;;;;;;17.10;10.75;;;;;;;22.99;75.02;101083.23;1743027;82;21043;-60
2023/08/16 04:30:22;;;;;;;14.63;10.70;;;;;;;23.04;74.78;101081.90;1742924;82;21016;-60
2023/08/16 04:32:51;;;;;;;13.90;11.70;;;;;;;23.09;74.34;101086.14;1729458;82;21069;-60
2023/08/16 04:35:21;;;;;;;17.98;10.98;;;;;;;23.16;73.91;101085.08;1715584;82;21065;-59
2023/08/16 04:37:51;;;;;;;19.80;11.10;;;;;;;23.24;73.57;101084.60;1715281;82;21085;-59
2023/08/16 04:40:20;;;;;;;15.70;11.83;;;;;;;23.31;73.33;101084.67;1715430;84;21046;-60
2023/08/16 04:42:49;;;;;;;22.17;13.13;;;;;;;23.38;73.32;101085.85;1715420;82;21478;-60
2023/08/16 04:45:18;;;;;;;21.12;12.05;;;;;;;23.43;73.41;101084.53;1715338;83;21097;-60
2023/08/16 04:47:47;;;;;;;16.45;11.88;;;;;;;23.50;73.13;101087.95;1715522;84;21098;-60
2023/08/16 04:50:19;;;;;;;21.20;11.22;;;;;;;23.58;72.80;101088.88;1715678;83;21082;-59
2023/08/16 04:52:49;;;;;;;22.20;11.78;;;;;;;23.69;72.56;101092.05;1715404;83;21560;-59
2023/08/16 04:55:20;;;;;;;20.55;11.63;;;;;;;23.79;72.37;101100.23;1715395;82;20999;-59
2023/08/16 04:57:50;;;;;;;19.40;11.12;;;;;;;23.89;72.08;101100.31;1715201;84;21087;-60
2023/08/16 05:00:21;;;;;;;17.75;11.15;;;;;;;23.96;71.67;101095.31;1715514;84;21034;-60
2023/08/16 05:02:55;;;;;;;18.35;12.85;;;;;;;24.03;71.27;101090.33;1715345;84;21513;-61
2023/08/16 05:05:27;;;;;;;23.30;11.78;;;;;;;24.12;70.70;101093.48;1715576;84;21057;-59
2023/08/16 05:07:56;;;;;;;19.17;11.53;;;;;;;24.19;69.86;101094.09;1715514;82;21030;-61
2023/08/16 05:10:26;;;;;;;19.70;12.00;;;;;;;24.25;69.39;101098.61;1715481;84;21018;-60
2023/08/16 05:12:55;;;;;;;17.32;11.05;;;;;;;24.29;68.99;101097.82;1715557;84;21050;-59
2023/08/16 05:15:24;;;;;;;17.00;11.03;;;;;;;24.36;68.55;101098.98;1715507;84;21062;-59
2023/08/16 05:17:53;;;;;;;21.93;12.63;;;;;;;24.44;68.50;101100.41;1715325;82;21030;-60
2023/08/16 05:20:23;;;;;;;15.32;11.48;;;;;;;24.52;68.46;101101.30;1715478;82;21078;-61
2023/08/16 05:22:53;;;;;;;16.48;11.53;;;;;;;24.58;68.46;101096.84;1715285;82;21014;-60
2023/08/16 05:25:23;;;;;;;21.00;11.38;;;;;;;24.66;68.41;101101.07;1715716;84;21035;-60
2023/08/16 05:27:52;;;;;;;19.80;10.65;;;;;;;24.73;68.38;101098.89;1715274;83;21030;-60
2023/08/16 05:30:22;;;;;;;17.32;11.03;;;;;;;24.80;68.07;101095.83;1715482;84;21014;-61
2023/08/16 05:32:50;;;;;;;14.47;10.38;;;;;;;24.89;67.59;101100.62;1715407;81;21086;-60
2023/08/16 05:35:20;;;;;;;17.30;11.15;;;;;;;24.99;67.06;101098.98;1715285;82;21015;-59
2023/08/16 05:37:54;;;;;;;18.92;10.43;;;;;;;25.08;66.71;101098.17;1715540;84;21049;-60
2023/08/16 05:40:23;;;;;;;22.00;11.45;;;;;;;25.15;66.49;101093.14;1715577;84;21030;-59
2023/08/16 05:42:54;;;;;;;16.15;11.85;;;;;;;25.24;65.99;101097.64;1715481;84;20995;-60
2023/08/16 05:45:26;;;;;;;17.73;11.80;;;;;;;25.30;65.58;101100.73;1715344;84;21510;-59
2023/08/16 05:47:55;;;;;;;20.45;12.43;;;;;;;25.37;65.45;101098.52;1715541;84;21612;-59
2023/08/16 05:50:25;;;;;;;17.45;11.08;;;;;;;25.43;65.35;101097.41;1715342;84;21490;-59
2023/08/16 05:52:54;;;;;;;19.37;11.12;;;;;;;25.50;65.31;101097.97;1715594;82;21070;-60
2023/08/16 05:55:24;;;;;;;18.75;10.85;;;;;;;25.57;65.27;101100.50;1715309;84;21086;-60
2023/08/16 05:57:55;;;;;;;22.15;11.22;;;;;;;25.63;65.23;101097.13;1715451;84;21145;-61
2023/08/16 06:00:26;;;;;;;16.52;11.40;;;;;;;25.72;64.92;101094.06;1715293;84;21011;-59
2023/08/16 06:02:55;;;;;;;18.05;10.85;;;;;;;25.82;64.73;101095.46;1715295;84;21488;-61
2023/08/16 06:05:23;;;;;;;23.00;11.33;;;;;;;25.90;64.14;101102.75;1715344;84;20995;-60
2023/08/16 06:07:52;;;;;;;14.83;10.48;;;;;;;25.99;64.19;101104.98;1715521;84;21058;-60
2023/08/16 06:10:22;;;;;;;18.00;10.63;;;;;;;26.07;63.88;101112.30;1715566;82;21030;-59
2023/08/16 06:12:52;;;;;;;20.75;10.70;;;;;;;26.12;63.50;101113.70;1708810;82;21488;-60
2023/08/16 06:15:22;;;;;;;18.25;10.25;;;;;;;26.15;63.33;101105.27;1715476;84;21034;-61
2023/08/16 06:17:51;;;;;;;21.50;10.95;;;;;;;26.20;63.36;101113.68;1715374;82;21010;-60
2023/08/16 06:20:20;;;;;;;17.95;10.15;;;;;;;26.28;63.08;101110.28;1715413;84;21497;-60
2023/08/16 06:22:49;;;;;;;19.27;10.05;;;;;;;26.36;62.87;101101.30;1715295;82;21010;-61
2023/08/16 06:25:18;;;;;;;18.77;9.80;;;;;;;26.45;62.58;101107.17;1715270;83;21106;-60
2023/08/16 06:27:48;;;;;;;18.75;9.35;;;;;;;26.51;62.38;101107.44;1715336;84;21451;-60
2023/08/16 06:30:17;;;;;;;19.40;9.10;;;;;;;26.57;62.14;101103.47;1715431;84;21035;-61
2023/08/16 06:32:46;;;;;;;18.02;9.05;;;;;;;26.64;61.53;101101.76;1715287;82;21039;-60
2023/08/16 06:35:15;;;;;;;22.85;10.00;;;;;;;26.73;61.33;101093.03;1715612;84;21501;-60
2023/08/16 06:37:46;;;;;;;19.37;9.15;;;;;;;26.93;61.08;101101.92;1715355;84;21438;-60
2023/08/16 06:40:14;;;;;;;19.80;9.28;;;;;;;27.20;60.29;101095.31;1715671;82;21090;-60
2023/08/16 06:42:45;;;;;;;19.35;9.10;;;;;;;27.93;58.36;101090.25;1715464;83;21018;-62
2023/08/16 06:45:14;;;;;;;24.52;12.98;;;;;;;27.93;58.36;101090.25;1715234;84;21022;-60
2023/08/16 06:47:42;;;;;;;14.25;9.15;;;;;;;28.28;57.04;101087.69;1715134;84;21486;-59
2023/08/16 06:50:12;;;;;;;25.48;10.72;;;;;;;28.62;56.16;101088.98;1715228;84;21458;-60
2023/08/16 06:52:42;;;;;;;14.60;8.55;;;;;;;28.93;55.00;101084.64;1715409;84;20991;-60
2023/08/16 06:55:12;;;;;;;14.90;8.30;;;;;;;29.22;54.47;101094.37;1715290;84;21075;-60
2023/08/16 06:57:42;;;;;;;19.37;9.10;;;;;;;29.58;53.45;101088.20;1715322;84;21482;-59
2023/08/16 07:00:11;;;;;;;18.85;8.98;;;;;;;29.96;52.22;101081.91;1715350;84;21008;-59
2023/08/16 07:02:40;;;;;;;13.30;8.38;;;;;;;30.28;51.04;101086.69;1715451;82;21459;-61
2023/08/16 07:05:11;;;;;;;14.63;8.63;;;;;;;30.53;50.22;101086.16;1715544;84;21050;-60
2023/08/16 07:07:41;;;;;;;14.70;8.18;;;;;;;30.76;49.65;101086.30;1715444;84;21054;-59
2023/08/16 07:10:11;;;;;;;20.43;9.48;;;;;;;31.05;48.92;101079.69;1715398;83;21112;-59
2023/08/16 07:12:39;;;;;;;17.95;9.10;;;;;;;31.28;48.44;101079.78;1709172;82;21102;-60
2023/08/16 07:15:11;;;;;;;14.93;9.38;;;;;;;31.48;47.75;101080.11;1715358;84;20991;-59
2023/08/16 07:17:40;;;;;;;17.67;8.30;;;;;;;31.69;47.09;101081.84;1715228;84;21514;-59
2023/08/16 07:20:10;;;;;;;12.45;7.22;;;;;;;31.88;46.48;101083.11;1715353;83;21066;-61
2023/08/16 07:22:40;;;;;;;10.38;6.80;;;;;;;32.08;45.67;101078.30;1715461;84;21022;-59
2023/08/16 07:25:12;;;;;;;9.68;6.55;;;;;;;32.32;44.52;101081.36;1715290;84;21026;-61
2023/08/16 07:27:40;;;;;;;10.20;6.78;;;;;;;32.68;43.68;101070.66;1715343;83;21023;-61
2023/08/16 07:30:11;;;;;;;9.10;6.53;;;;;;;32.88;43.15;101079.74;1715300;84;21038;-60
2023/08/16 07:32:39;;;;;;;13.43;7.53;;;;;;;32.91;42.76;101081.33;1708595;84;21042;-59
2023/08/16 07:35:09;;;;;;;15.32;7.35;;;;;;;32.96;42.13;101072.66;1761096;81;21042;-59
2023/08/16 07:37:38;;;;;;;10.58;7.72;;;;;;;32.84;42.26;101072.47;1761446;81;21066;-60
2023/08/16 07:40:08;;;;;;;16.02;7.58;;;;;;;32.85;42.87;101074.14;1761445;81;21042;-60
2023/08/16 07:42:38;;;;;;;7.05;5.70;;;;;;;33.02;42.67;101075.58;1761472;81;21475;-59
2023/08/16 07:45:08;;;;;;;8.48;6.00;;;;;;;33.23;41.67;101080.05;1761619;81;21010;-58
2023/08/16 07:47:37;;;;;;;8.43;6.37;;;;;;;33.42;40.82;101074.06;1761339;81;21034;-61
2023/08/16 07:50:07;;;;;;;12.03;6.80;;;;;;;33.52;40.73;101070.05;1761755;81;21023;-59
2023/08/16 07:52:35;;;;;;;7.47;6.10;;;;;;;33.65;40.44;101070.44;1761836;80;21112;-60
2023/08/16 07:55:06;;;;;;;10.78;6.67;;;;;;;33.81;39.85;101072.16;1761563;80;21065;-61
2023/08/16 07:57:38;;;;;;;9.60;6.65;;;;;;;33.76;39.41;101067.49;1747101;80;21033;-61
2023/08/16 08:00:12;;;;;;;10.82;6.58;;;;;;;33.72;39.74;101070.17;1779763;80;21051;-61
2023/08/16 08:02:41;;;;;;;9.55;7.12;;;;;;;33.83;39.71;101068.46;1772852;80;21129;-60
2023/08/16 08:05:14;;;;;;;14.93;7.25;;;;;;;33.96;39.67;101066.00;1768375;81;21089;-62
2023/08/16 08:07:43;;;;;;;9.78;6.85;;;;;;;33.92;39.13;101071.53;1776960;81;21083;-60
2023/08/16 08:10:14;;;;;;;9.98;6.78;;;;;;;33.98;38.85;101063.64;1770103;81;21448;-60
2023/08/16 08:12:47;;;;;;;9.18;6.75;;;;;;;34.02;38.98;101066.89;1746856;82;21499;-60
2023/08/16 08:15:16;;;;;;;9.30;6.20;;;;;;;34.16;38.99;101063.83;1760337;81;21083;-61
2023/08/16 08:17:47;;;;;;;8.18;6.22;;;;;;;34.32;38.48;101065.52;1746681;82;21518;-61
2023/08/16 08:20:16;;;;;;;8.45;6.00;;;;;;;34.51;37.98;101065.15;1760409;81;21056;-61
2023/08/16 08:22:45;;;;;;;10.43;5.65;;;;;;;34.63;37.39;101062.41;1760182;81;21103;-59
2023/08/16 08:25:14;;;;;;;8.55;6.08;;;;;;;34.69;37.11;101064.46;1746873;82;21080;-60
2023/08/16 08:27:43;;;;;;;61.40;10.72;;;;;;;34.71;37.03;101056.41;1761172;81;21064;-60
2023/08/16 08:30:14;;;;;;;9.75;6.70;;;;;;;34.66;37.25;101054.59;1771418;81;21052;-60
2023/08/16 08:32:43;;;;;;;9.60;5.55;;;;;;;34.68;37.10;101053.66;1777267;81;21020;-60
2023/08/16 08:35:12;;;;;;;9.88;6.00;;;;;;;34.71;36.92;101056.41;1776893;81;21037;-59
2023/08/16 08:37:41;;;;;;;8.70;6.10;;;;;;;34.83;37.06;101053.09;1682265;85;21075;-61
2023/08/16 08:40:11;;;;;;;7.87;6.03;;;;;;;34.96;36.69;101056.26;1682361;85;21058;-61
2023/08/16 08:42:40;;;;;;;11.95;7.15;;;;;;;35.00;36.69;101054.97;1682194;85;21075;-61
2023/08/16 08:45:09;;;;;;;10.65;5.70;;;;;;;34.96;36.62;101048.30;1659590;85;21510;-60
2023/08/16 08:47:38;;;;;;;6.92;5.00;;;;;;;34.86;36.55;101045.27;1682274;85;21059;-61
2023/08/16 08:50:09;;;;;;;12.33;5.12;;;;;;;34.78;36.38;101045.30;1682358;85;21048;-59
2023/08/16 08:52:38;;;;;;;5.28;4.78;;;;;;;34.85;36.09;101043.61;1682220;85;21627;-61
2023/08/16 08:55:08;;;;;;;6.05;4.92;;;;;;;34.79;35.68;101037.84;1701438;81;21092;-61
2023/08/16 08:57:37;;;;;;;7.53;4.60;;;;;;;34.79;35.99;101043.53;1776932;81;21024;-61
2023/08/16 09:00:10;;;;;;;7.33;4.87;;;;;;;34.93;35.58;101046.98;1777172;81;21112;-61
2023/08/16 09:02:39;;;;;;;8.98;4.83;;;;;;;35.09;35.22;101044.34;1733707;81;21045;-61
2023/08/16 09:05:09;;;;;;;11.12;6.00;;;;;;;35.14;35.12;101039.05;1717360;83;21971;-60
2023/08/16 09:07:37;;;;;;;9.18;5.22;;;;;;;35.10;35.05;101039.48;1729963;83;21024;-62
2023/08/16 09:10:09;;;;;;;7.22;4.78;;;;;;;34.99;35.16;101038.23;1701188;83;21499;-62
2023/08/16 09:12:38;;;;;;;8.75;5.10;;;;;;;34.85;35.58;101033.64;1730054;82;21037;-60
2023/08/16 09:15:08;;;;;;;10.93;5.80;;;;;;;34.76;35.70;101032.84;1717052;83;21041;-61
2023/08/16 09:17:37;;;;;;;6.97;4.90;;;;;;;34.64;35.79;101029.31;1729937;83;21076;-61
2023/08/16 09:20:08;;;;;;;6.75;4.92;;;;;;;34.51;36.07;101028.14;1717093;83;22025;-61
2023/08/16 09:22:37;;;;;;;10.55;5.12;;;;;;;34.37;36.23;101035.48;1730062;83;21060;-60
2023/08/16 09:25:10;;;;;;;7.65;5.40;;;;;;;34.30;36.60;101037.41;1691464;83;21049;-61
2023/08/16 09:27:41;;;;;;;8.45;5.05;;;;;;;34.20;36.63;101029.84;1714750;81;21504;-60
2023/08/16 09:30:14;;;;;;;8.60;5.65;;;;;;;33.93;37.11;101028.28;1744674;82;21531;-60
2023/08/16 09:32:44;;;;;;;8.30;5.28;;;;;;;33.76;37.58;101026.85;1744617;82;21460;-60
2023/08/16 09:35:13;;;;;;;5.87;5.15;;;;;;;33.67;37.50;101028.30;1743064;82;21096;-61
2023/08/16 09:37:43;;;;;;;6.72;5.12;;;;;;;33.53;37.61;101022.81;1744847;82;21496;-62
2023/08/16 09:40:12;;;;;;;9.78;5.67;;;;;;;33.40;37.86;101028.10;1754722;81;21019;-60
2023/08/16 09:42:46;;;;;;;9.05;5.72;;;;;;;33.24;38.05;101022.66;1756857;81;21033;-60
2023/08/16 09:45:15;;;;;;;10.98;5.90;;;;;;;33.12;38.22;101019.04;1756506;82;21050;-61
2023/08/16 09:47:44;;;;;;;9.15;5.80;;;;;;;33.01;38.39;101015.70;1756741;80;21069;-60
2023/08/16 09:50:20;;;;;;;6.65;5.53;;;;;;;32.97;38.67;101015.28;1752411;82;21030;-59
2023/08/16 09:52:45;;;;;;;6.95;5.08;;;;;;;32.96;38.96;101023.55;1756483;82;21049;-60
2023/08/16 09:55:24;;;;;;;7.62;5.25;;;;;;;32.89;38.52;101019.79;1756640;82;21071;-60
2023/08/16 09:58:00;;;;;;;6.28;5.08;;;;;;;32.80;38.38;101018.11;1756570;80;21046;-59
2023/08/16 10:00:30;;;;;;;7.83;5.03;;;;;;;32.71;38.29;101010.97;1757368;81;21516;-61
2023/08/16 10:03:00;;;;;;;6.08;5.10;;;;;;;32.64;38.07;101017.72;1776915;81;21025;-61
2023/08/16 10:05:29;;;;;;;8.60;5.20;;;;;;;32.56;38.60;101021.38;1777046;81;21453;-62
2023/08/16 10:08:04;;;;;;;7.97;4.95;;;;;;;32.54;38.76;101012.36;1773332;81;21425;-60
2023/08/16 10:10:31;;;;;;;12.80;4.95;;;;;;;32.45;38.70;101008.89;1776927;81;21522;-61
2023/08/16 10:13:01;;;;;;;7.33;5.10;;;;;;;32.37;38.76;101007.45;1777148;81;21057;-60
2023/08/16 10:15:34;;;;;;;11.57;5.25;;;;;;;32.27;39.30;101004.92;1776967;81;21448;-62
2023/08/16 10:18:05;;;;;;;7.70;4.90;;;;;;;32.22;39.20;101003.04;1776992;81;21476;-60
2023/08/16 10:20:34;;;;;;;8.18;4.58;;;;;;;32.17;39.23;101006.03;1747069;81;21107;-59
2023/08/16 10:23:04;;;;;;;5.45;4.25;;;;;;;32.10;39.44;101012.75;1777195;81;21056;-60
2023/08/16 10:25:47;;;;;;;7.10;4.45;;;;;;;32.01;39.36;101014.14;1777118;81;21441;-62
2023/08/16 10:28:15;;;;;;;5.80;5.03;;;;;;;31.91;39.57;101015.84;1777144;81;21133;-62
2023/08/16 10:30:47;;;;;;;6.00;4.30;;;;;;;31.82;39.60;100999.34;1777041;81;21507;-60
2023/08/16 10:33:26;;;;;;;8.20;4.72;;;;;;;31.74;39.53;101007.22;1772594;81;21410;-61
2023/08/16 10:35:54;;;;;;;7.25;4.95;;;;;;;31.73;39.93;100999.30;1761439;81;21048;-59
2023/08/16 10:38:25;;;;;;;7.90;5.00;;;;;;;31.80;39.41;101001.67;1758132;81;21057;-61
2023/08/16 10:40:57;;;;;;;5.50;4.45;;;;;;;31.84;39.05;100991.35;1736631;81;21069;-60
2023/08/16 10:43:37;;;;;;;6.28;4.72;;;;;;;31.87;38.81;100993.56;1757874;81;21057;-63
2023/08/16 10:46:05;;;;;;;5.10;4.33;;;;;;;31.88;38.84;100989.57;1757978;80;21520;-62
2023/08/16 10:48:37;;;;;;;5.28;4.78;;;;;;;31.88;39.21;100990.15;1758041;81;21030;-59
2023/08/16 10:51:08;;;;;;;7.87;4.53;;;;;;;31.90;39.15;100986.41;1757992;81;21422;-59
2023/08/16 10:53:37;;;;;;;8.85;6.17;;;;;;;31.92;38.54;100992.59;1737665;81;21061;-59
2023/08/16 10:56:08;;;;;;;9.05;5.12;;;;;;;31.95;38.45;100992.77;1757802;81;21034;-58
2023/08/16 10:58:51;;;;;;;12.05;5.62;;;;;;;32.03;38.48;100986.88;1757900;81;21037;-61
2023/08/16 11:01:22;;;;;;;6.15;4.37;;;;;;;32.07;37.98;100985.05;1752683;81;21076;-60
2023/08/16 11:04:02;;;;;;;9.83;4.85;;;;;;;31.99;38.07;100973.10;1747002;82;21274;-60
2023/08/16 11:06:31;;;;;;;6.90;4.47;;;;;;;31.97;38.31;100972.59;1744072;82;21013;-60
2023/08/16 11:09:02;;;;;;;7.30;4.72;;;;;;;31.97;38.21;100974.02;1744177;82;20998;-61
2023/08/16 11:11:32;;;;;;;8.00;4.40;;;;;;;31.99;38.48;100973.10;1744247;82;21076;-61
2023/08/16 11:14:01;;;;;;;7.37;4.37;;;;;;;32.03;38.72;100971.28;1744359;82;21057;-61
2023/08/16 11:16:30;;;;;;;5.97;4.40;;;;;;;32.06;38.71;100964.95;1744052;82;21490;-61
2023/08/16 11:19:04;;;;;;;5.62;4.30;;;;;;;32.08;38.92;100961.20;1744046;82;21029;-60
2023/08/16 11:21:44;;;;;;;6.08;4.20;;;;;;;32.02;38.90;100958.27;1746185;82;21473;-61
2023/08/16 11:24:10;;;;;;;7.05;4.35;;;;;;;31.92;39.18;100954.31;1744000;82;21063;-60
2023/08/16 11:26:39;;;;;;;7.62;4.55;;;;;;;31.84;39.27;100951.09;1744208;82;21184;-61
2023/08/16 11:29:08;;;;;;;7.22;4.30;;;;;;;31.79;39.56;100962.57;1743896;82;21065;-61